Time;durP1;ratioP1;P1;durP2;ratioP2;P2;SDS_P1;SDS_P2;PMS_P1;PMS_P2;Temp;Humidity;BMP_temperature;BMP_pressure;BME280_temperature;BME280_humidity;BME280_pressure;Samples;Min_cycle;Max_cycle;Signal;HPM_P1;HPM_P2
2022/08/23 00:02:21;;;;;;;1.70;1.00;;;20.10;99.90;;;;;;5051618;28;20197;-82
2022/08/23 00:04:54;;;;;;;1.70;1.02;;;20.10;99.90;;;;;;5040798;28;20201;-81
2022/08/23 00:07:26;;;;;;;3.13;1.40;;;20.20;99.90;;;;;;5043646;28;20544;-81
2022/08/23 00:09:58;;;;;;;2.42;1.30;;;20.20;99.90;;;;;;5050323;28;20495;-80
2022/08/23 00:12:29;;;;;;;2.05;1.30;;;20.30;99.90;;;;;;5050884;28;20201;-80
2022/08/23 00:15:01;;;;;;;3.63;1.55;;;20.40;99.90;;;;;;5051431;28;20204;-81
2022/08/23 00:17:32;;;;;;;2.92;1.40;;;20.50;99.90;;;;;;5051792;28;20277;-81
2022/08/23 00:20:06;;;;;;;3.05;1.40;;;20.60;99.90;;;;;;5051931;28;20215;-81
2022/08/23 00:22:36;;;;;;;2.10;1.50;;;20.70;99.90;;;;;;5036969;28;20197;-81
2022/08/23 00:25:10;;;;;;;2.05;1.85;;;20.80;99.90;;;;;;5049856;28;20648;-82
2022/08/23 00:27:41;;;;;;;3.20;1.80;;;20.90;99.90;;;;;;5031201;28;20201;-79
2022/08/23 00:30:14;;;;;;;2.80;1.58;;;21.00;99.90;;;;;;5031730;28;20200;-81
2022/08/23 00:32:48;;;;;;;2.88;1.60;;;21.20;99.90;;;;;;5031412;28;20208;-81
2022/08/23 00:35:21;;;;;;;2.28;1.65;;;21.20;99.90;;;;;;5045771;28;20200;-80
2022/08/23 00:37:52;;;;;;;2.45;1.40;;;21.20;99.90;;;;;;5050257;28;20773;-81
2022/08/23 00:40:23;;;;;;;3.20;1.27;;;21.20;99.90;;;;;;5049435;28;20189;-80
2022/08/23 00:48:45;;;;;;;2.88;1.30;;;21.50;99.90;;;;;;5051089;28;20219;-80
2022/08/23 00:51:24;;;;;;;3.28;1.23;;;21.50;99.90;;;;;;5050786;28;20204;-81
2022/08/23 00:54:00;;;;;;;1.60;0.80;;;21.50;99.90;;;;;;5048574;28;20200;-81
2022/08/23 00:56:34;;;;;;;2.35;1.10;;;21.60;99.90;;;;;;5046291;28;20709;-80
2022/08/23 00:59:05;;;;;;;2.00;0.95;;;21.60;99.90;;;;;;5050089;28;20535;-81
2022/08/23 01:01:36;;;;;;;1.95;1.00;;;21.60;99.90;;;;;;5051213;28;20200;-81
2022/08/23 01:04:08;;;;;;;1.90;1.30;;;21.70;99.90;;;;;;5051271;28;20659;-81
2022/08/23 01:06:47;;;;;;;1.70;1.17;;;21.70;99.90;;;;;;5050913;28;20205;-80
2022/08/23 01:09:20;;;;;;;2.72;1.20;;;21.80;99.90;;;;;;5050913;28;20200;-81
2022/08/23 01:11:54;;;;;;;2.42;1.20;;;21.80;99.90;;;;;;5046547;28;20214;-81
2022/08/23 01:14:31;;;;;;;1.65;1.00;;;21.90;99.90;;;;;;5041438;28;20202;-81
2022/08/23 01:17:06;;;;;;;4.10;1.20;;;21.90;99.90;;;;;;5050389;28;20657;-81
2022/08/23 01:19:41;;;;;;;1.83;0.80;;;22.00;99.90;;;;;;5051234;28;20196;-81
2022/08/23 01:22:19;;;;;;;1.63;1.10;;;22.10;99.20;;;;;;5050437;28;20200;-81
2022/08/23 01:24:52;;;;;;;1.90;1.20;;;22.10;99.40;;;;;;5051363;28;20625;-80
2022/08/23 01:27:23;;;;;;;1.73;1.00;;;22.10;99.90;;;;;;5049403;28;20203;-80
2022/08/23 01:29:54;;;;;;;1.75;1.00;;;22.20;99.90;;;;;;5039569;28;20201;-81
2022/08/23 01:32:26;;;;;;;3.35;1.00;;;22.30;99.40;;;;;;5042491;28;20193;-80
2022/08/23 01:34:56;;;;;;;1.05;0.70;;;22.30;98.00;;;;;;5043354;28;20200;-81
2022/08/23 01:37:27;;;;;;;2.17;0.90;;;22.40;98.00;;;;;;5050581;28;20225;-81
2022/08/23 01:40:00;;;;;;;1.63;0.95;;;22.40;97.40;;;;;;5064342;28;20300;-82
2022/08/23 01:42:31;;;;;;;3.85;1.00;;;22.40;97.00;;;;;;5068498;28;20291;-82
2022/08/23 01:45:02;;;;;;;1.13;0.80;;;22.40;96.60;;;;;;5070275;28;20264;-81
2022/08/23 01:47:33;;;;;;;0.75;0.70;;;22.50;96.70;;;;;;5049444;28;20205;-81
2022/08/23 01:50:03;;;;;;;1.60;0.73;;;22.60;95.10;;;;;;5042325;28;20219;-81
2022/08/23 01:52:34;;;;;;;1.63;0.85;;;22.70;95.00;;;;;;5051050;28;20196;-81
2022/08/23 01:55:08;;;;;;;1.27;0.85;;;22.80;94.60;;;;;;5050449;28;20206;-81
2022/08/23 01:57:39;;;;;;;1.10;0.55;;;22.90;92.20;;;;;;5051056;28;20702;-81
2022/08/23 02:00:11;;;;;;;3.75;0.70;;;22.90;92.80;;;;;;5051524;28;20595;-81
2022/08/23 02:02:42;;;;;;;1.20;0.70;;;22.80;92.60;;;;;;5050369;28;20201;-81
2022/08/23 02:05:13;;;;;;;1.30;0.60;;;22.70;92.80;;;;;;5051349;28;20193;-81
2022/08/23 02:07:47;;;;;;;1.25;0.80;;;22.60;93.30;;;;;;5054869;28;20219;-81
2022/08/23 02:10:20;;;;;;;1.15;0.80;;;22.60;93.30;;;;;;5050996;28;20208;-81
2022/08/23 02:12:51;;;;;;;1.13;0.60;;;22.70;94.00;;;;;;5034678;28;20197;-82
2022/08/23 02:15:22;;;;;;;1.70;0.60;;;22.80;92.90;;;;;;5037617;28;20201;-81
2022/08/23 02:17:54;;;;;;;4.30;0.70;;;22.90;91.80;;;;;;5034045;28;20221;-81
2022/08/23 02:20:26;;;;;;;1.00;0.70;;;23.00;91.60;;;;;;5036828;28;20193;-80
2022/08/23 02:22:57;;;;;;;1.17;0.70;;;22.90;91.30;;;;;;5048048;28;20201;-81
2022/08/23 02:25:29;;;;;;;3.05;0.70;;;22.90;91.20;;;;;;5051667;28;20193;-80
2022/08/23 02:28:03;;;;;;;3.83;0.95;;;22.90;89.80;;;;;;5053685;28;20250;-81
2022/08/23 02:30:33;;;;;;;0.70;0.55;;;22.60;90.00;;;;;;5053956;28;20192;-80
2022/08/23 02:33:04;;;;;;;2.78;0.60;;;22.50;90.70;;;;;;5053892;28;20203;-80
2022/08/23 02:35:35;;;;;;;2.33;1.08;;;22.30;90.30;;;;;;5052947;28;20193;-81
2022/08/23 02:38:07;;;;;;;2.90;0.90;;;22.10;91.00;;;;;;5043297;28;20221;-80
2022/08/23 02:40:40;;;;;;;2.15;0.77;;;22.00;92.30;;;;;;5051771;28;20197;-81
2022/08/23 02:43:11;;;;;;;1.67;1.05;;;22.00;92.90;;;;;;5053581;28;20228;-82
2022/08/23 02:45:42;;;;;;;2.03;1.10;;;22.10;92.50;;;;;;5053657;28;20196;-82
2022/08/23 02:48:14;;;;;;;0.90;0.75;;;22.10;94.50;;;;;;5054160;28;20224;-82
2022/08/23 02:50:45;;;;;;;3.42;1.00;;;22.00;94.60;;;;;;5053442;28;20279;-81
2022/08/23 02:53:16;;;;;;;2.25;0.90;;;21.90;95.70;;;;;;5052680;28;20631;-81
2022/08/23 02:55:50;;;;;;;1.08;0.90;;;21.70;97.60;;;;;;5049945;28;20192;-82
2022/08/23 02:58:21;;;;;;;1.50;0.90;;;21.70;98.30;;;;;;5053062;28;20567;-81
2022/08/23 03:00:53;;;;;;;1.95;0.98;;;21.60;98.50;;;;;;5052940;28;20225;-81
2022/08/23 03:03:24;;;;;;;3.15;1.20;;;21.60;97.80;;;;;;5051235;28;20203;-80
2022/08/23 03:05:55;;;;;;;13.68;2.10;;;21.50;98.00;;;;;;5052707;28;20201;-80
2022/08/23 03:08:26;;;;;;;13.52;2.00;;;21.20;99.90;;;;;;5052939;28;20204;-80
2022/08/23 03:10:59;;;;;;;16.77;2.17;;;20.50;99.90;;;;;;5046469;28;20729;-80
2022/08/23 03:13:29;;;;;;;12.65;2.05;;;19.70;99.90;;;;;;5052816;28;20201;-80
2022/08/23 03:16:00;;;;;;;11.13;1.90;;;18.90;99.90;;;;;;5052548;28;20196;-81
2022/08/23 03:18:31;;;;;;;5.95;1.63;;;18.50;99.90;;;;;;5051271;28;20223;-81
2022/08/23 03:21:02;;;;;;;11.55;2.22;;;18.20;99.90;;;;;;5037348;28;20277;-81
2022/08/23 03:23:33;;;;;;;14.18;2.20;;;17.90;99.90;;;;;;5032780;28;20667;-81
2022/08/23 03:26:07;;;;;;;13.52;2.10;;;17.70;99.90;;;;;;5038716;28;20197;-81
2022/08/23 03:28:40;;;;;;;15.77;2.47;;;17.50;99.90;;;;;;5042981;28;20219;-81
2022/08/23 03:31:12;;;;;;;9.98;1.92;;;17.30;99.90;;;;;;5032722;28;20296;-82
2022/08/23 03:33:43;;;;;;;10.88;2.03;;;17.30;99.90;;;;;;5032958;28;20198;-81
2022/08/23 03:36:14;;;;;;;12.57;2.33;;;17.30;99.90;;;;;;5049924;28;20203;-81
2022/08/23 03:38:45;;;;;;;15.27;2.30;;;17.20;99.90;;;;;;5052234;28;20591;-81
2022/08/23 03:41:18;;;;;;;11.40;1.70;;;17.20;99.90;;;;;;5049256;28;20203;-81
2022/08/23 03:43:49;;;;;;;11.15;1.27;;;17.00;99.90;;;;;;5051220;28;20220;-81
2022/08/23 03:46:23;;;;;;;14.30;2.10;;;16.80;99.90;;;;;;5051270;28;20200;-81
2022/08/23 03:48:55;;;;;;;8.05;1.67;;;16.60;99.90;;;;;;5051555;28;20216;-81
2022/08/23 03:51:28;;;;;;;8.60;1.25;;;16.40;99.90;;;;;;5052213;28;20204;-81
2022/08/23 03:53:59;;;;;;;10.40;1.40;;;16.30;99.90;;;;;;5047840;28;20206;-81
2022/08/23 03:56:34;;;;;;;10.68;1.40;;;16.20;99.90;;;;;;5049901;28;20192;-81
2022/08/23 03:59:06;;;;;;;8.65;1.30;;;16.10;99.90;;;;;;5049905;28;20227;-82
2022/08/23 04:01:37;;;;;;;5.03;1.17;;;15.90;99.90;;;;;;5051500;28;20201;-82
2022/08/23 04:04:08;;;;;;;4.38;1.00;;;15.80;99.90;;;;;;5032109;28;20394;-82
2022/08/23 04:06:40;;;;;;;6.45;1.08;;;15.70;99.90;;;;;;5032635;28;20193;-82
2022/08/23 04:09:10;;;;;;;6.65;0.93;;;15.50;99.90;;;;;;5032549;28;20197;-81
2022/08/23 04:11:43;;;;;;;5.20;0.90;;;15.20;99.90;;;;;;5041841;28;20192;-81
2022/08/23 04:14:14;;;;;;;5.07;0.95;;;14.90;99.90;;;;;;5051569;28;20200;-81
2022/08/23 04:16:45;;;;;;;6.75;0.90;;;14.70;99.90;;;;;;5050712;28;20203;-81
2022/08/23 04:19:16;;;;;;;6.18;1.10;;;14.70;99.90;;;;;;5049764;28;20699;-82
2022/08/23 04:21:51;;;;;;;4.55;1.10;;;14.70;99.90;;;;;;5051717;28;20288;-82
2022/08/23 04:24:22;;;;;;;5.18;1.05;;;14.70;99.90;;;;;;5048701;28;20214;-81
2022/08/23 04:26:55;;;;;;;8.95;1.80;;;14.30;99.90;;;;;;5048417;28;20220;-82
2022/08/23 04:29:25;;;;;;;7.10;1.17;;;14.20;99.90;;;;;;5051435;28;20192;-81
2022/08/23 04:31:56;;;;;;;6.35;1.10;;;14.00;99.90;;;;;;5051344;28;20211;-82
2022/08/23 04:34:27;;;;;;;5.75;1.00;;;13.80;99.90;;;;;;5046401;28;20201;-82
2022/08/23 04:36:58;;;;;;;9.93;1.02;;;13.80;99.90;;;;;;5039455;28;20492;-81
2022/08/23 04:42:16;;;;;;;3.80;0.80;;;13.70;99.90;;;;;;5031318;28;20205;-82
2022/08/23 04:42:22;;;;;;;2.60;0.80;;;13.80;99.90;;;;;;5046788;28;20239;-82
2022/08/23 04:44:52;;;;;;;5.35;0.77;;;13.60;99.90;;;;;;5051037;28;20203;-81
2022/08/23 04:47:23;;;;;;;2.55;0.70;;;13.60;99.90;;;;;;5050794;28;20644;-81
2022/08/23 04:49:54;;;;;;;2.58;0.77;;;13.30;99.90;;;;;;5050052;28;20614;-80
2022/08/23 04:52:25;;;;;;;3.53;0.70;;;13.10;99.90;;;;;;5050960;28;20209;-81
2022/08/23 04:54:55;;;;;;;4.95;0.90;;;13.10;99.90;;;;;;5048223;28;20655;-81
2022/08/23 04:57:28;;;;;;;4.63;0.70;;;13.00;99.90;;;;;;5048608;28;20201;-81
2022/08/23 04:59:59;;;;;;;3.13;0.60;;;13.00;99.90;;;;;;5050365;28;20670;-81
2022/08/23 05:02:30;;;;;;;3.28;0.80;;;13.00;99.90;;;;;;5050922;28;20563;-81
2022/08/23 05:05:01;;;;;;;2.35;0.70;;;13.00;99.90;;;;;;5050995;28;20200;-81
2022/08/23 05:07:32;;;;;;;5.18;0.90;;;13.00;99.90;;;;;;5049932;28;20283;-81
2022/08/23 05:10:03;;;;;;;1.90;0.57;;;13.00;99.90;;;;;;5050078;28;20208;-81
2022/08/23 05:12:35;;;;;;;3.25;0.70;;;12.80;99.90;;;;;;5048586;28;20196;-81
2022/08/23 05:15:06;;;;;;;1.42;0.60;;;12.80;99.90;;;;;;5050930;28;20207;-80
2022/08/23 05:17:37;;;;;;;3.42;0.80;;;12.70;99.90;;;;;;5051849;28;20698;-81
2022/08/23 05:20:09;;;;;;;2.85;0.82;;;12.70;99.90;;;;;;5041154;28;20208;-81
2022/08/23 05:22:44;;;;;;;5.53;0.80;;;12.60;99.90;;;;;;5031630;28;20196;-81
2022/08/23 05:25:16;;;;;;;5.15;0.80;;;12.50;99.90;;;;;;5048849;28;20196;-82
2022/08/23 05:27:48;;;;;;;4.47;0.70;;;12.40;99.90;;;;;;5048507;28;20667;-82
2022/08/23 05:30:19;;;;;;;3.60;0.77;;;12.40;99.90;;;;;;5050274;28;20196;-82
2022/08/23 05:32:50;;;;;;;2.97;0.60;;;12.30;99.90;;;;;;5050143;28;20207;-81
2022/08/23 05:35:21;;;;;;;2.33;0.60;;;12.20;99.90;;;;;;5046188;28;20232;-81
2022/08/23 05:37:52;;;;;;;4.82;0.90;;;12.20;99.90;;;;;;5050722;28;20224;-81
2022/08/23 05:40:23;;;;;;;2.88;0.77;;;12.10;99.90;;;;;;5052053;28;20196;-81
2022/08/23 05:42:58;;;;;;;1.95;0.52;;;12.00;99.90;;;;;;5054143;28;20242;-82
2022/08/23 05:45:28;;;;;;;6.82;0.90;;;11.90;99.90;;;;;;5038235;28;20204;-81
2022/08/23 05:47:59;;;;;;;3.67;0.70;;;11.70;99.90;;;;;;5034502;28;20201;-82
2022/08/23 05:50:30;;;;;;;6.65;0.90;;;11.70;99.90;;;;;;5034278;28;20554;-82
2022/08/23 05:53:01;;;;;;;7.40;1.60;;;11.70;99.90;;;;;;5039466;28;20568;-82
2022/08/23 05:55:31;;;;;;;5.15;0.90;;;11.70;99.90;;;;;;5052786;28;20204;-81
2022/08/23 05:58:04;;;;;;;1.77;0.70;;;11.50;99.90;;;;;;5054350;28;20712;-82
2022/08/23 06:00:35;;;;;;;3.70;0.93;;;11.60;99.90;;;;;;5055064;28;20207;-82
2022/08/23 06:03:07;;;;;;;1.88;0.70;;;11.60;99.90;;;;;;5035276;28;20193;-82
2022/08/23 06:05:41;;;;;;;2.47;0.70;;;11.60;99.90;;;;;;5052209;28;20570;-82
2022/08/23 06:08:12;;;;;;;2.25;0.70;;;11.70;99.90;;;;;;5053820;28;20659;-83
2022/08/23 06:10:43;;;;;;;1.35;0.80;;;11.80;99.90;;;;;;5052353;28;20208;-83
2022/08/23 06:13:16;;;;;;;1.65;0.60;;;11.60;99.90;;;;;;5048372;28;20220;-82
2022/08/23 06:15:47;;;;;;;2.88;0.63;;;11.40;99.90;;;;;;5053267;28;20193;-83
2022/08/23 06:18:18;;;;;;;2.80;1.27;;;11.30;99.90;;;;;;5048140;28;20228;-81
2022/08/23 06:20:49;;;;;;;4.47;0.80;;;11.40;99.90;;;;;;5033735;28;20189;-80
2022/08/23 06:23:20;;;;;;;1.35;0.65;;;11.40;99.90;;;;;;5047044;28;20201;-81
2022/08/23 06:25:51;;;;;;;0.93;0.50;;;11.60;99.90;;;;;;5051653;28;20207;-82
2022/08/23 06:28:24;;;;;;;2.13;0.65;;;11.50;99.90;;;;;;5053619;28;20253;-82
2022/08/23 06:30:57;;;;;;;1.98;0.73;;;11.50;99.90;;;;;;5052436;28;20202;-82
2022/08/23 06:33:29;;;;;;;2.50;0.80;;;11.50;99.90;;;;;;5052925;28;20188;-82
2022/08/23 06:36:05;;;;;;;2.75;0.70;;;11.40;99.90;;;;;;5050684;28;20250;-83
2022/08/23 06:38:36;;;;;;;1.00;0.77;;;11.50;99.90;;;;;;5053403;28;20228;-82
2022/08/23 06:41:11;;;;;;;1.88;0.65;;;11.50;99.90;;;;;;5051588;28;20207;-83
2022/08/23 06:43:43;;;;;;;3.10;1.00;;;11.30;99.90;;;;;;5053036;28;20706;-82
2022/08/23 06:46:17;;;;;;;1.30;0.70;;;11.20;99.90;;;;;;5051983;28;20203;-82
2022/08/23 06:48:49;;;;;;;0.85;0.60;;;11.30;99.90;;;;;;5052602;28;20221;-82
2022/08/23 06:51:25;;;;;;;1.55;0.85;;;11.30;99.90;;;;;;5052117;28;20227;-83
2022/08/23 06:53:57;;;;;;;0.63;0.60;;;11.40;99.90;;;;;;5036899;28;20209;-82
2022/08/23 06:56:29;;;;;;;1.05;0.60;;;11.30;99.90;;;;;;5040590;28;20197;-82
2022/08/23 06:59:04;;;;;;;1.48;0.50;;;11.40;99.90;;;;;;5052966;28;20239;-83
2022/08/23 07:01:39;;;;;;;4.70;0.70;;;11.40;99.90;;;;;;5051974;28;20251;-82
2022/08/23 07:04:16;;;;;;;1.15;0.70;;;11.20;99.90;;;;;;5052788;28;20197;-82
2022/08/23 07:06:47;;;;;;;2.38;0.95;;;11.20;99.90;;;;;;5053056;28;20682;-82
2022/08/23 07:09:19;;;;;;;1.85;0.70;;;11.20;99.90;;;;;;5052252;28;20729;-82
2022/08/23 07:11:50;;;;;;;0.60;0.50;;;11.20;99.90;;;;;;5050445;28;20200;-82
2022/08/23 07:14:24;;;;;;;1.00;0.70;;;11.20;99.90;;;;;;5052554;28;20663;-82
2022/08/23 07:16:56;;;;;;;1.70;0.80;;;11.20;99.90;;;;;;5052628;28;20215;-82
2022/08/23 07:19:28;;;;;;;2.45;1.02;;;11.20;99.90;;;;;;5048412;28;20331;-82
2022/08/23 07:21:59;;;;;;;2.90;1.90;;;11.20;99.90;;;;;;5050636;28;20203;-82
2022/08/23 07:24:30;;;;;;;3.60;1.10;;;11.20;99.90;;;;;;5052475;28;20203;-83
2022/08/23 07:27:05;;;;;;;2.03;1.00;;;11.20;99.90;;;;;;5050126;28;20288;-82
2022/08/23 07:29:38;;;;;;;3.97;2.42;;;11.30;99.90;;;;;;5052434;28;20226;-82
2022/08/23 07:32:09;;;;;;;2.63;1.42;;;11.30;99.90;;;;;;5052276;28;20196;-82
2022/08/23 07:34:40;;;;;;;3.38;1.17;;;11.30;99.90;;;;;;5048306;28;20203;-82
2022/08/23 07:37:11;;;;;;;3.33;1.80;;;11.30;99.90;;;;;;5052716;28;20323;-82
2022/08/23 07:39:42;;;;;;;2.08;1.40;;;11.30;99.90;;;;;;5052503;28;20315;-82
2022/08/23 07:42:13;;;;;;;1.75;0.80;;;11.30;99.90;;;;;;5048936;28;20243;-82
2022/08/23 07:44:45;;;;;;;2.42;1.20;;;11.30;99.90;;;;;;5034007;28;20571;-82
2022/08/23 07:47:16;;;;;;;3.08;1.40;;;11.40;99.90;;;;;;5032196;28;20198;-82
2022/08/23 07:49:47;;;;;;;2.72;1.40;;;11.20;99.90;;;;;;5044782;28;20259;-82
2022/08/23 07:52:18;;;;;;;2.03;1.42;;;11.20;99.90;;;;;;5032030;28;20185;-82
2022/08/23 07:54:49;;;;;;;1.42;1.08;;;11.20;99.90;;;;;;5032002;28;20205;-82
2022/08/23 07:57:20;;;;;;;1.70;1.05;;;11.30;99.90;;;;;;5049426;28;20201;-82
2022/08/23 07:59:53;;;;;;;2.58;1.00;;;11.30;99.90;;;;;;5048696;28;20647;-82
2022/08/23 08:02:24;;;;;;;1.38;1.00;;;11.30;99.90;;;;;;5032278;28;20197;-82
2022/08/23 08:04:55;;;;;;;1.70;0.93;;;11.30;99.90;;;;;;5050072;28;20196;-82
2022/08/23 08:07:26;;;;;;;1.02;0.68;;;11.40;99.90;;;;;;5052022;28;20205;-82
2022/08/23 08:09:57;;;;;;;2.25;1.13;;;11.50;99.90;;;;;;5051560;28;20207;-82
2022/08/23 08:12:27;;;;;;;1.15;1.00;;;11.40;99.90;;;;;;5049445;28;20196;-82
2022/08/23 08:15:00;;;;;;;1.92;1.33;;;11.30;99.90;;;;;;5051393;28;20181;-82
2022/08/23 08:17:33;;;;;;;1.33;1.23;;;11.20;99.90;;;;;;5042830;28;20212;-82
2022/08/23 08:20:04;;;;;;;2.08;1.52;;;11.20;99.90;;;;;;5040039;28;20315;-82
2022/08/23 08:22:35;;;;;;;1.53;1.00;;;11.00;99.90;;;;;;5050176;28;20189;-81
2022/08/23 08:25:06;;;;;;;2.00;1.00;;;11.00;99.90;;;;;;5048672;28;20310;-82
2022/08/23 08:27:37;;;;;;;1.98;1.00;;;11.10;99.90;;;;;;5047816;28;20204;-82
2022/08/23 08:30:12;;;;;;;1.55;1.13;;;11.00;99.90;;;;;;5051184;28;20302;-82
2022/08/23 08:32:43;;;;;;;1.05;0.93;;;11.00;99.90;;;;;;5051629;28;20202;-82
2022/08/23 08:35:14;;;;;;;1.77;1.17;;;10.60;99.90;;;;;;5044861;28;20724;-82
2022/08/23 08:37:45;;;;;;;2.83;1.25;;;10.50;99.90;;;;;;5049981;28;20567;-81
2022/08/23 08:40:18;;;;;;;2.03;1.20;;;10.60;99.90;;;;;;5050895;28;20267;-82
2022/08/23 08:43:05;;;;;;;1.08;0.93;;;10.60;99.90;;;;;;5048635;28;20698;-82
2022/08/23 08:45:47;;;;;;;2.15;1.00;;;10.50;99.90;;;;;;5050728;28;20208;-82
2022/08/23 08:48:20;;;;;;;1.52;1.00;;;10.50;99.90;;;;;;5050568;28;20294;-82
2022/08/23 08:50:56;;;;;;;2.75;1.10;;;10.60;99.90;;;;;;5050105;28;20215;-82
2022/08/23 08:53:35;;;;;;;1.43;1.00;;;10.30;99.90;;;;;;5049825;28;20539;-82
2022/08/23 08:56:17;;;;;;;1.30;0.90;;;10.50;99.90;;;;;;5034888;28;20714;-82
2022/08/23 08:58:53;;;;;;;1.20;1.05;;;10.40;99.90;;;;;;5050678;28;20286;-82
2022/08/23 09:01:27;;;;;;;1.70;1.23;;;10.50;99.90;;;;;;5050682;28;20198;-82
2022/08/23 09:03:59;;;;;;;2.05;1.17;;;10.40;99.90;;;;;;5050724;28;20222;-82
2022/08/23 09:06:35;;;;;;;2.50;1.30;;;10.40;99.90;;;;;;5050605;28;20197;-82
2022/08/23 09:09:21;;;;;;;3.97;1.60;;;10.40;99.90;;;;;;5049614;28;20262;-82
2022/08/23 09:12:02;;;;;;;1.27;0.80;;;10.50;99.90;;;;;;5047206;28;20219;-82
2022/08/23 09:14:51;;;;;;;1.40;0.90;;;10.40;99.90;;;;;;5050388;28;20221;-82
2022/08/23 09:17:32;;;;;;;3.00;1.13;;;10.30;99.90;;;;;;5050436;28;20679;-82
2022/08/23 09:20:06;;;;;;;2.05;1.02;;;10.20;99.90;;;;;;5049623;28;20239;-82
2022/08/23 09:22:42;;;;;;;1.92;1.20;;;10.20;99.90;;;;;;5050484;28;20197;-82
2022/08/23 09:25:14;;;;;;;2.03;1.40;;;10.20;99.90;;;;;;5049867;28;20200;-82
2022/08/23 09:27:47;;;;;;;3.78;1.40;;;10.20;99.90;;;;;;5047352;28;20201;-82
2022/08/23 09:30:19;;;;;;;9.50;6.43;;;10.10;99.90;;;;;;5050287;28;20197;-82
2022/08/23 09:32:52;;;;;;;1.77;0.82;;;10.10;99.90;;;;;;5050505;28;20196;-83
2022/08/23 09:35:27;;;;;;;1.17;0.87;;;10.00;99.90;;;;;;5047518;28;20581;-82
2022/08/23 09:38:04;;;;;;;1.13;0.90;;;10.00;99.90;;;;;;5050369;28;20196;-82
2022/08/23 09:40:38;;;;;;;0.90;0.80;;;10.00;99.90;;;;;;5049834;28;20212;-83
2022/08/23 09:43:15;;;;;;;1.30;1.20;;;9.90;99.90;;;;;;5035020;28;20229;-82
2022/08/23 09:46:00;;;;;;;1.40;1.10;;;10.00;99.90;;;;;;5047010;28;20209;-83
2022/08/23 09:48:43;;;;;;;1.90;1.10;;;9.90;99.90;;;;;;5050318;28;20224;-82
2022/08/23 09:51:24;;;;;;;2.63;1.00;;;9.90;99.90;;;;;;5050710;28;20185;-82
2022/08/23 09:54:06;;;;;;;1.93;0.83;;;9.90;99.90;;;;;;5050136;28;20262;-82
2022/08/23 09:56:43;;;;;;;2.40;1.40;;;10.00;99.90;;;;;;5048333;28;20226;-82
2022/08/23 09:59:41;;;;;;;2.40;0.80;;;9.80;99.90;;;;;;5044579;28;20263;-82
2022/08/23 10:02:19;;;;;;;2.33;1.10;;;9.80;99.90;;;;;;5038823;28;20726;-82
2022/08/23 10:05:01;;;;;;;1.90;0.80;;;9.80;99.90;;;;;;5048465;28;20280;-81
2022/08/23 10:07:37;;;;;;;1.10;0.70;;;9.90;99.90;;;;;;5050143;28;20235;-81
2022/08/23 10:10:24;;;;;;;1.53;0.90;;;9.90;99.90;;;;;;5045620;28;20201;-81
2022/08/23 10:12:57;;;;;;;1.50;0.67;;;9.80;99.90;;;;;;5048310;28;20193;-82
2022/08/23 10:15:50;;;;;;;1.67;0.90;;;9.80;99.90;;;;;;5049998;28;20196;-82
2022/08/23 10:18:36;;;;;;;0.83;0.60;;;9.90;99.90;;;;;;5045431;28;20246;-82
2022/08/23 10:21:17;;;;;;;1.40;0.97;;;9.70;99.90;;;;;;5048793;28;20221;-80
2022/08/23 10:24:11;;;;;;;1.90;0.90;;;9.80;99.90;;;;;;5049809;28;20197;-81
2022/08/23 10:26:48;;;;;;;1.50;0.70;;;9.80;99.90;;;;;;5049890;28;20199;-81
2022/08/23 10:29:37;;;;;;;1.70;0.70;;;9.70;99.90;;;;;;5051146;28;20200;-82
2022/08/23 10:32:21;;;;;;;0.60;0.60;;;9.70;99.90;;;;;;5042330;28;20193;-82
2022/08/23 10:35:05;;;;;;;1.40;0.60;;;9.70;99.90;;;;;;5049415;28;20196;-81
2022/08/23 10:38:00;;;;;;;0.77;0.65;;;9.50;99.90;;;;;;5047217;28;20605;-81
2022/08/23 10:40:35;;;;;;;1.63;0.70;;;9.70;99.90;;;;;;5033457;28;20225;-81
2022/08/23 10:43:19;;;;;;;0.90;0.60;;;9.60;99.90;;;;;;5052160;28;20352;-80
2022/08/23 10:45:51;;;;;;;1.43;0.80;;;9.60;99.90;;;;;;5054357;28;20283;-80
2022/08/23 10:48:28;;;;;;;1.17;0.65;;;9.70;99.90;;;;;;5052972;28;20220;-80
2022/08/23 10:51:02;;;;;;;0.53;0.50;;;9.60;99.90;;;;;;5050132;28;20203;-81
2022/08/23 10:53:44;;;;;;;1.48;0.70;;;9.60;99.90;;;;;;5043224;28;20578;-82
2022/08/23 10:56:18;;;;;;;1.27;0.73;;;9.50;99.90;;;;;;5047297;28;20245;-81
2022/08/23 10:58:52;;;;;;;2.70;0.83;;;9.40;99.90;;;;;;5052849;28;20200;-81
2022/08/23 11:01:25;;;;;;;1.87;0.67;;;9.50;99.90;;;;;;5052794;28;20228;-81
2022/08/23 11:04:07;;;;;;;1.47;0.60;;;9.60;99.90;;;;;;5046336;28;20238;-81
2022/08/23 11:06:54;;;;;;;1.20;0.80;;;9.60;99.90;;;;;;5039748;28;20208;-81
2022/08/23 11:10:10;;;;;;;1.53;0.70;;;9.40;99.90;;;;;;5049155;28;20197;-80
2022/08/23 11:12:56;;;;;;;1.23;0.70;;;9.40;99.90;;;;;;5046865;28;20659;-80
2022/08/23 11:15:41;;;;;;;1.17;0.87;;;9.40;99.90;;;;;;5052631;28;20203;-80
2022/08/23 11:18:34;;;;;;;1.07;0.60;;;9.50;99.90;;;;;;5032787;28;20207;-80
2022/08/23 11:21:08;;;;;;;2.20;0.77;;;9.40;99.90;;;;;;5032653;28;20232;-80
2022/08/23 11:23:52;;;;;;;0.83;0.63;;;9.40;99.90;;;;;;5044621;28;20219;-80
2022/08/23 11:27:07;;;;;;;0.70;0.60;;;9.40;99.90;;;;;;5034908;28;20632;-80
2022/08/23 11:29:42;;;;;;;1.17;0.80;;;9.40;99.90;;;;;;5032453;28;20216;-80
2022/08/23 11:32:42;;;;;;;2.80;0.80;;;9.40;99.90;;;;;;5032682;28;20204;-81
2022/08/23 11:35:39;;;;;;;0.97;0.73;;;9.50;99.90;;;;;;5037032;28;20200;-80
2022/08/23 11:38:10;;;;;;;1.23;0.80;;;9.50;99.90;;;;;;5048977;28;20216;-81
2022/08/23 11:41:00;;;;;;;2.37;0.70;;;9.60;99.90;;;;;;5051150;28;20216;-81
2022/08/23 11:43:34;;;;;;;2.13;0.70;;;9.60;99.90;;;;;;5048203;28;20266;-81
2022/08/23 11:46:33;;;;;;;0.97;0.60;;;9.50;99.90;;;;;;5052087;28;20321;-81
2022/08/23 11:49:37;;;;;;;1.13;0.60;;;9.50;99.90;;;;;;5052053;28;20212;-81
2022/08/23 11:52:20;;;;;;;0.80;0.80;;;9.40;99.90;;;;;;5032332;28;20663;-81
2022/08/23 11:55:09;;;;;;;1.70;0.73;;;9.40;99.90;;;;;;5052173;28;20196;-80
2022/08/23 11:57:56;;;;;;;2.03;0.97;;;9.40;99.90;;;;;;5047840;28;20200;-81
2022/08/23 12:00:32;;;;;;;1.43;0.80;;;9.50;99.90;;;;;;5033442;28;20248;-80
2022/08/23 12:03:07;;;;;;;4.93;1.05;;;9.50;99.90;;;;;;5040153;28;20197;-80
2022/08/23 12:06:07;;;;;;;0.80;0.60;;;9.50;99.90;;;;;;5046759;28;20228;-80
2022/08/23 12:09:00;;;;;;;1.53;0.60;;;9.40;99.90;;;;;;5051389;28;20287;-80
2022/08/23 12:12:11;;;;;;;1.90;0.83;;;9.50;99.90;;;;;;5047252;28;20197;-80
2022/08/23 12:14:54;;;;;;;3.17;1.27;;;9.60;99.90;;;;;;5026398;28;20192;-81
2022/08/23 12:18:11;;;;;;;2.20;0.80;;;9.50;99.90;;;;;;5047171;28;20196;-80
2022/08/23 12:20:47;;;;;;;3.83;1.00;;;9.60;99.90;;;;;;5048904;28;20225;-80
2022/08/23 12:23:20;;;;;;;1.63;0.73;;;9.60;99.90;;;;;;5051740;28;20223;-80
2022/08/23 12:26:08;;;;;;;2.17;0.87;;;9.60;99.90;;;;;;5051039;28;20197;-80
2022/08/23 12:28:47;;;;;;;1.83;0.70;;;9.60;99.90;;;;;;5051401;28;20205;-80
2022/08/23 12:31:28;;;;;;;3.37;0.80;;;9.60;99.90;;;;;;5051754;28;20207;-80
2022/08/23 12:34:11;;;;;;;1.83;0.82;;;9.60;99.90;;;;;;5050971;28;20204;-80
2022/08/23 12:36:51;;;;;;;2.73;0.90;;;9.70;99.90;;;;;;5046993;28;20197;-79
2022/08/23 12:39:31;;;;;;;2.60;0.80;;;9.50;99.90;;;;;;5051136;28;20200;-79
2022/08/23 12:42:07;;;;;;;3.57;0.90;;;9.60;99.90;;;;;;5048644;28;20204;-79
2022/08/23 12:44:37;;;;;;;3.43;0.90;;;9.60;99.90;;;;;;5046273;28;20199;-80
2022/08/23 12:47:17;;;;;;;5.07;0.90;;;9.60;99.90;;;;;;5032925;28;20209;-80
2022/08/23 12:49:59;;;;;;;3.07;1.00;;;9.60;99.90;;;;;;5041533;28;20206;-80
2022/08/23 12:52:33;;;;;;;1.67;0.70;;;9.60;99.90;;;;;;5045429;28;20235;-80
2022/08/23 12:55:04;;;;;;;2.30;0.80;;;9.60;99.90;;;;;;5037717;28;20193;-81
2022/08/23 12:57:37;;;;;;;2.43;0.80;;;9.70;99.90;;;;;;5048867;28;20204;-81
2022/08/23 13:00:25;;;;;;;4.67;0.93;;;9.70;99.90;;;;;;5050388;28;20572;-81
2022/08/23 13:02:59;;;;;;;1.30;0.70;;;9.70;99.90;;;;;;5050558;28;20203;-81
2022/08/23 13:05:43;;;;;;;3.03;1.00;;;9.70;99.90;;;;;;5036871;28;20655;-81
2022/08/23 13:08:23;;;;;;;2.05;0.90;;;9.80;99.90;;;;;;5031250;28;20212;-82
2022/08/23 13:10:55;;;;;;;1.10;0.70;;;9.70;99.90;;;;;;5036383;28;20212;-81
2022/08/23 13:13:28;;;;;;;2.07;0.70;;;9.80;99.90;;;;;;5048446;28;20200;-81
2022/08/23 13:16:01;;;;;;;1.60;0.95;;;9.70;99.90;;;;;;5050505;28;20200;-80
2022/08/23 13:18:36;;;;;;;1.53;0.90;;;9.80;99.90;;;;;;5044648;28;20197;-80
2022/08/23 13:21:35;;;;;;;4.55;0.70;;;9.80;99.90;;;;;;5031399;28;20573;-80
2022/08/23 13:24:35;;;;;;;1.30;0.70;;;9.80;99.90;;;;;;5030701;28;20201;-81
2022/08/23 13:27:19;;;;;;;1.67;0.90;;;9.90;99.90;;;;;;5038512;28;20659;-80
2022/08/23 13:29:58;;;;;;;2.23;0.70;;;9.90;99.90;;;;;;5050431;28;20655;-80
2022/08/23 13:32:36;;;;;;;2.07;0.80;;;9.90;99.90;;;;;;5050336;28;20200;-80
2022/08/23 13:35:30;;;;;;;1.95;0.80;;;9.80;99.90;;;;;;5049245;28;20685;-81
2022/08/23 13:38:09;;;;;;;2.40;1.00;;;9.90;99.90;;;;;;5050245;28;20271;-80